Sprouses Corner, Virginia
Current Conditions -  °F | °C
As of 2:35 PM on Friday 31 Oct 2014 (Local Time) from KFVX Reporting Station
Overcast Overcast  
Wind Chill: 59°   Ceiling: 4600
Heat Index: 59°   Visibility: 10mi
Dew Point: 37°   Wind: 5mph
Humidity: 45%   Direction: 10°N
Pressure: 29.84"   Gusts: NA
Location:  37.522°N, 78.4779°W
Report Text: KFVX 311835Z AUTO 01004KT 10SM BKN046 OVC050 15/03 A2984 RMK AO2
Loading
Personal Weather Stations






























Interactive Weather Map
Tropical Storm Tracking
New forecast layout! Learn more

10-Day Weather Forecast

Advertisements
Track Severe Weather on mobile